createdAt,value
2017-11-08T00:01:03.187Z,101436.27
2017-11-08T00:03:40.909Z,101437.09
2017-11-08T00:06:17.572Z,101433.66
2017-11-08T00:08:55.341Z,101433.97
2017-11-08T00:11:32.096Z,101432.73
2017-11-08T00:14:11.401Z,101438.66
2017-11-08T00:16:50.495Z,101436.93
2017-11-08T00:19:27.454Z,101432.77
2017-11-08T00:22:08.069Z,101426.33
2017-11-08T00:24:46.994Z,101433.13
2017-11-08T00:27:24.278Z,101433.48
2017-11-08T00:30:02.290Z,101433.98
2017-11-08T00:32:39.374Z,101432.23
2017-11-08T00:35:16.292Z,101434.38
2017-11-08T00:37:53.506Z,101422.48
2017-11-08T00:40:31.417Z,101420.85
2017-11-08T00:43:00.398Z,101410.25
2017-11-08T00:45:37.201Z,101414.88
2017-11-08T00:48:14.101Z,101420.75
2017-11-08T00:50:53.523Z,101415.64
2017-11-08T00:53:30.762Z,101411.73
2017-11-08T00:56:11.602Z,101406.59
2017-11-08T00:58:48.347Z,101404.42
2017-11-08T01:01:25.841Z,101405.30
2017-11-08T01:04:03.285Z,101400.60
2017-11-08T01:06:40.307Z,101408.41
2017-11-08T01:09:17.184Z,101398.70
2017-11-08T01:11:55.186Z,101388.04
2017-11-08T01:14:31.972Z,101379.92
2017-11-08T01:17:09.455Z,101381.17
2017-11-08T01:19:46.440Z,101378.22
2017-11-08T01:22:25.519Z,101387.94
2017-11-08T01:25:02.310Z,101392.02
2017-11-08T01:27:39.761Z,101382.72
2017-11-08T01:30:17.071Z,101386.54
2017-11-08T01:32:58.455Z,101384.34
2017-11-08T01:35:35.073Z,101388.56
2017-11-08T01:38:15.995Z,101387.78
2017-11-08T01:40:53.407Z,101384.77
2017-11-08T01:43:32.056Z,101384.33
2017-11-08T01:46:09.119Z,101376.70
2017-11-08T01:48:50.211Z,101372.13
2017-11-08T01:51:26.891Z,101372.58
2017-11-08T01:54:04.111Z,101367.34
2017-11-08T01:56:41.240Z,101361.31
2017-11-08T01:59:19.065Z,101357.59
2017-11-08T02:01:55.663Z,101357.62
2017-11-08T02:04:33.737Z,101371.11
2017-11-08T02:09:48.149Z,101366.80
2017-11-08T02:12:17.166Z,101371.02
2017-11-08T02:14:56.025Z,101370.45
2017-11-08T02:17:33.499Z,101372.09
2017-11-08T02:20:10.687Z,101376.25
2017-11-08T02:22:47.599Z,101384.78
2017-11-08T02:25:31.334Z,101384.34
2017-11-08T02:28:10.416Z,101384.77
2017-11-08T02:30:47.708Z,101380.96
2017-11-08T02:33:24.551Z,101377.94
2017-11-08T02:36:02.329Z,101387.66
2017-11-08T02:38:39.332Z,101387.59
2017-11-08T02:44:26.727Z,101380.75
2017-11-08T02:47:06.468Z,101376.44
2017-11-08T02:49:45.675Z,101372.31
2017-11-08T02:52:22.615Z,101377.30
2017-11-08T02:55:05.426Z,101387.91
2017-11-08T02:57:42.715Z,101390.38
2017-11-08T03:00:20.806Z,101378.97
2017-11-08T03:02:57.519Z,101371.39
2017-11-08T03:05:38.473Z,101368.90
2017-11-08T03:08:15.352Z,101370.61
2017-11-08T03:10:54.556Z,101366.99
2017-11-08T03:13:33.437Z,101365.25
2017-11-08T03:16:10.647Z,101364.33
2017-11-08T03:18:47.581Z,101358.04
2017-11-08T03:21:25.703Z,101356.38
2017-11-08T03:24:02.649Z,101355.86
2017-11-08T03:26:40.197Z,101355.08
2017-11-08T03:29:17.094Z,101352.91
2017-11-08T03:31:53.838Z,101348.25
2017-11-08T03:34:31.260Z,101344.34
2017-11-08T03:37:08.190Z,101352.06
2017-11-08T03:39:45.634Z,101354.69
2017-11-08T03:42:22.287Z,101358.50
2017-11-08T03:44:59.762Z,101355.84
2017-11-08T03:47:36.449Z,101357.52
2017-11-08T03:50:13.710Z,101360.62
2017-11-08T03:52:53.014Z,101358.91
2017-11-08T03:55:30.466Z,101363.60
2017-11-08T03:58:08.948Z,101369.17
2017-11-08T04:00:47.889Z,101375.58
2017-11-08T04:03:26.580Z,101373.13
2017-11-08T04:06:03.810Z,101366.70
2017-11-08T04:08:44.249Z,101368.80
2017-11-08T04:11:20.833Z,101374.42
2017-11-08T04:13:57.981Z,101376.57
2017-11-08T04:16:35.177Z,101369.38
2017-11-08T04:19:13.265Z,101370.16
2017-11-08T04:21:50.112Z,101363.75
2017-11-08T04:24:27.487Z,101365.95
2017-11-08T04:27:07.663Z,101370.27
2017-11-08T04:29:45.182Z,101366.44
2017-11-08T04:32:22.478Z,101365.63
2017-11-08T04:34:59.313Z,101361.89
2017-11-08T04:37:36.557Z,101363.70
2017-11-08T04:40:14.117Z,101356.07
2017-11-08T04:42:42.993Z,101361.04
2017-11-08T04:45:27.180Z,101357.33
2017-11-08T04:48:03.835Z,101359.09
2017-11-08T04:50:44.804Z,101356.97
2017-11-08T04:53:21.600Z,101346.73
2017-11-08T04:56:00.326Z,101343.74
2017-11-08T04:58:37.422Z,101359.42
2017-11-08T05:01:14.917Z,101366.22
2017-11-08T05:03:43.891Z,101375.92
2017-11-08T05:06:21.827Z,101378.48
2017-11-08T05:08:58.778Z,101386.56
2017-11-08T05:11:36.570Z,101388.22
2017-11-08T05:14:13.480Z,101389.52
2017-11-08T05:16:50.521Z,101380.23
2017-11-08T05:19:27.936Z,101373.92
2017-11-08T05:22:10.148Z,101368.98
2017-11-08T05:24:47.153Z,101361.83
2017-11-08T05:27:24.337Z,101363.57
2017-11-08T05:30:01.806Z,101370.45
2017-11-08T05:32:40.206Z,101369.28
2017-11-08T05:35:17.508Z,101369.75
2017-11-08T05:37:52.605Z,101370.73
2017-11-08T05:40:21.491Z,101378.02
2017-11-08T05:43:00.955Z,101374.22
2017-11-08T05:45:40.106Z,101370.53
2017-11-08T05:48:17.367Z,101370.56
2017-11-08T05:50:54.709Z,101380.00
2017-11-08T05:53:31.688Z,101377.92
2017-11-08T05:56:08.635Z,101378.06
2017-11-08T05:58:47.724Z,101376.81
2017-11-08T06:01:27.109Z,101378.22
2017-11-08T06:04:04.914Z,101374.57
2017-11-08T06:06:42.416Z,101359.41
2017-11-08T06:09:19.313Z,101363.41
2017-11-08T06:11:58.597Z,101363.48
2017-11-08T06:14:38.394Z,101354.09
2017-11-08T06:17:21.435Z,101365.98
2017-11-08T06:19:58.159Z,101364.70
2017-11-08T06:22:38.273Z,101363.41
2017-11-08T06:25:17.690Z,101366.20
2017-11-08T06:27:54.826Z,101372.16
2017-11-08T06:33:08.880Z,101373.00
2017-11-08T06:35:48.762Z,101366.64
2017-11-08T06:38:25.729Z,101360.66
2017-11-08T06:41:04.796Z,101359.51
2017-11-08T06:43:47.584Z,101357.03
2017-11-08T06:46:24.421Z,101360.39
2017-11-08T06:49:01.590Z,101359.16
2017-11-08T06:51:38.774Z,101363.92
2017-11-08T06:54:16.653Z,101362.69
2017-11-08T06:56:53.975Z,101359.70
2017-11-08T06:59:30.599Z,101354.19
2017-11-08T07:02:09.759Z,101366.13
2017-11-08T07:04:46.557Z,101369.53
2017-11-08T07:07:24.451Z,101370.81
2017-11-08T07:10:01.517Z,101361.45
2017-11-08T07:12:38.643Z,101353.75
2017-11-08T07:15:15.988Z,101355.03
2017-11-08T07:17:52.806Z,101361.83
2017-11-08T07:20:30.157Z,101363.96
2017-11-08T07:23:07.180Z,101357.16
2017-11-08T07:25:44.006Z,101358.47
2017-11-08T07:28:20.917Z,101359.72
2017-11-08T07:30:57.867Z,101364.00
2017-11-08T07:33:36.722Z,101361.02
2017-11-08T07:36:14.067Z,101359.34
2017-11-08T07:38:52.545Z,101369.98
2017-11-08T07:41:29.568Z,101360.98
2017-11-08T07:44:06.754Z,101361.02
2017-11-08T07:46:43.850Z,101358.91
2017-11-08T07:52:07.983Z,101364.02
2017-11-08T07:54:48.310Z,101367.86
2017-11-08T07:57:27.255Z,101366.60
2017-11-08T08:00:04.588Z,101364.88
2017-11-08T08:02:42.333Z,101372.91
2017-11-08T08:05:18.972Z,101363.19
2017-11-08T08:07:59.765Z,101372.11
2017-11-08T08:10:40.140Z,101366.18
2017-11-08T08:13:19.701Z,101363.98
2017-11-08T08:15:56.941Z,101359.76
2017-11-08T08:18:34.851Z,101360.19
2017-11-08T08:21:16.458Z,101361.48
2017-11-08T08:23:54.626Z,101364.41
2017-11-08T08:26:32.550Z,101355.04
2017-11-08T08:29:09.468Z,101357.55
2017-11-08T08:31:46.095Z,101361.69
2017-11-08T08:34:24.954Z,101353.50
2017-11-08T08:37:01.838Z,101362.48
2017-11-08T08:39:38.624Z,101359.09
2017-11-08T08:42:14.969Z,101364.28
2017-11-08T08:44:52.055Z,101358.82
2017-11-08T08:47:28.960Z,101352.88
2017-11-08T08:50:06.239Z,101354.92
2017-11-08T08:52:43.096Z,101352.02
2017-11-08T08:55:20.130Z,101348.24
2017-11-08T08:57:57.057Z,101348.65
2017-11-08T09:00:35.494Z,101331.98
2017-11-08T09:03:12.707Z,101335.75
2017-11-08T09:05:50.498Z,101331.00
2017-11-08T09:08:27.217Z,101324.16
2017-11-08T09:11:05.361Z,101310.58
2017-11-08T09:13:42.312Z,101310.49
2017-11-08T09:16:19.307Z,101317.20
2017-11-08T09:18:56.637Z,101316.37
2017-11-08T09:21:44.465Z,101314.66
2017-11-08T09:24:26.329Z,101307.91
2017-11-08T09:27:04.164Z,101311.87
2017-11-08T09:29:41.295Z,101312.25
2017-11-08T09:32:18.456Z,101314.53
2017-11-08T09:35:00.443Z,101308.97
2017-11-08T09:37:39.835Z,101312.47
2017-11-08T09:40:16.482Z,101311.22
2017-11-08T09:42:55.359Z,101307.78
2017-11-08T09:45:37.309Z,101305.53
2017-11-08T09:48:13.932Z,101310.61
2017-11-08T09:50:50.989Z,101313.83
2017-11-08T09:53:31.010Z,101305.25
2017-11-08T09:56:08.630Z,101305.90
2017-11-08T09:58:45.420Z,101304.26
2017-11-08T10:01:24.563Z,101300.86
2017-11-08T10:04:03.459Z,101287.90
2017-11-08T10:06:40.959Z,101290.41
2017-11-08T10:09:30.512Z,101285.98
2017-11-08T10:12:12.890Z,101291.68
2017-11-08T10:14:49.925Z,101286.17
2017-11-08T10:17:26.885Z,101278.83
2017-11-08T10:20:03.938Z,101278.56
2017-11-08T10:22:40.889Z,101271.83
2017-11-08T10:25:18.189Z,101271.25
2017-11-08T10:27:56.039Z,101272.64
2017-11-08T10:30:32.530Z,101274.23
2017-11-08T10:33:09.892Z,101269.17
2017-11-08T10:35:46.399Z,101279.30
2017-11-08T10:38:23.015Z,101277.59
2017-11-08T10:41:00.612Z,101270.28
2017-11-08T10:43:29.424Z,101270.08
2017-11-08T10:46:06.472Z,101262.86
2017-11-08T10:48:38.016Z,101261.04
2017-11-08T10:51:16.053Z,101244.58
2017-11-08T10:53:52.931Z,101244.44
2017-11-08T10:56:31.348Z,101244.98
2017-11-08T10:59:13.885Z,101251.89
2017-11-08T11:01:53.190Z,101248.98
2017-11-08T11:04:32.630Z,101254.11
2017-11-08T11:07:11.490Z,101238.48
2017-11-08T11:09:49.180Z,101241.30
2017-11-08T11:12:26.672Z,101237.83
2017-11-08T11:15:03.753Z,101242.73
2017-11-08T11:17:40.548Z,101233.20
2017-11-08T11:20:19.361Z,101238.71
2017-11-08T11:22:56.325Z,101234.19
2017-11-08T11:25:32.950Z,101233.38
2017-11-08T11:28:12.405Z,101228.08
2017-11-08T11:30:52.591Z,101219.05
2017-11-08T11:33:29.400Z,101235.87
2017-11-08T11:39:00.264Z,101221.55
2017-11-08T11:41:37.253Z,101234.70
2017-11-08T11:44:14.983Z,101231.84
2017-11-08T11:46:52.218Z,101228.37
2017-11-08T11:49:34.815Z,101220.66
2017-11-08T11:52:12.113Z,101224.13
2017-11-08T11:54:49.875Z,101224.53
2017-11-08T11:57:26.932Z,101218.16
2017-11-08T12:00:08.761Z,101211.42
2017-11-08T12:02:45.812Z,101216.95
2017-11-08T12:05:23.699Z,101208.37
2017-11-08T12:08:00.623Z,101213.55
2017-11-08T12:10:40.786Z,101209.31
2017-11-08T12:13:17.737Z,101207.72
2017-11-08T12:15:55.837Z,101199.17
2017-11-08T12:18:33.040Z,101199.11
2017-11-08T12:21:13.904Z,101202.89
2017-11-08T12:23:51.001Z,101199.92
2017-11-08T12:26:32.553Z,101200.72
2017-11-08T12:29:09.883Z,101192.32
2017-11-08T12:31:46.817Z,101190.13
2017-11-08T12:34:23.545Z,101188.83
2017-11-08T12:37:00.474Z,101191.39
2017-11-08T12:39:37.118Z,101193.08
2017-11-08T12:45:20.462Z,101198.26
2017-11-08T12:47:57.378Z,101194.36
2017-11-08T12:50:35.331Z,101190.55
2017-11-08T12:53:12.328Z,101192.41
2017-11-08T12:55:49.583Z,101192.89
2017-11-08T12:58:26.518Z,101195.89
2017-11-08T13:01:03.354Z,101191.66
2017-11-08T13:03:40.082Z,101195.81
2017-11-08T13:06:18.845Z,101191.95
2017-11-08T13:08:55.896Z,101188.48
2017-11-08T13:11:37.006Z,101194.48
2017-11-08T13:14:14.505Z,101198.42
2017-11-08T13:16:55.195Z,101195.42
2017-11-08T13:19:32.650Z,101191.19
2017-11-08T13:22:10.629Z,101191.61
2017-11-08T13:24:47.526Z,101194.24
2017-11-08T13:27:27.284Z,101190.06
2017-11-08T13:30:04.355Z,101184.17
2017-11-08T13:32:42.342Z,101187.96
2017-11-08T13:35:19.296Z,101188.44
2017-11-08T13:37:58.682Z,101196.13
2017-11-08T13:40:35.209Z,101196.55
2017-11-08T13:43:12.261Z,101194.02
2017-11-08T13:45:50.677Z,101200.00
2017-11-08T13:48:27.943Z,101199.20
2017-11-08T13:51:05.141Z,101199.23
2017-11-08T13:53:42.122Z,101197.93
2017-11-08T13:56:19.011Z,101202.21
2017-11-08T14:01:38.461Z,101184.34
2017-11-08T14:04:19.000Z,101195.84
2017-11-08T14:07:01.048Z,101199.68
2017-11-08T14:09:38.750Z,101205.66
2017-11-08T14:12:15.465Z,101200.59
2017-11-08T14:14:52.600Z,101198.05
2017-11-08T14:17:29.276Z,101191.23
2017-11-08T14:20:06.118Z,101199.75
2017-11-08T14:22:43.190Z,101198.04
2017-11-08T14:25:24.441Z,101204.02
2017-11-08T14:28:01.859Z,101205.31
2017-11-08T14:30:38.847Z,101202.32
2017-11-08T14:33:15.355Z,101193.39
2017-11-08T14:35:52.095Z,101192.58
2017-11-08T14:38:29.051Z,101187.45
2017-11-08T14:41:06.965Z,101184.48
2017-11-08T14:43:35.784Z,101180.25
2017-11-08T14:46:13.831Z,101180.67
2017-11-08T14:48:50.698Z,101185.34
2017-11-08T14:51:27.390Z,101184.91
2017-11-08T14:54:07.288Z,101170.44
2017-11-08T14:56:44.180Z,101167.91
2017-11-08T14:59:21.104Z,101166.19
2017-11-08T15:01:58.127Z,101168.76
2017-11-08T15:04:35.370Z,101170.86
2017-11-08T15:07:16.709Z,101168.31
2017-11-08T15:09:53.836Z,101175.13
2017-11-08T15:12:36.724Z,101179.80
2017-11-08T15:15:16.260Z,101189.16
2017-11-08T15:17:59.809Z,101189.58
2017-11-08T15:20:37.030Z,101186.59
2017-11-08T15:23:13.818Z,101191.27
2017-11-08T15:25:50.616Z,101193.81
2017-11-08T15:28:28.229Z,101195.94
2017-11-08T15:31:06.753Z,101204.89
2017-11-08T15:33:47.602Z,101208.70
2017-11-08T15:36:24.502Z,101212.55
2017-11-08T15:39:03.176Z,101212.53
2017-11-08T15:41:39.733Z,101217.23
2017-11-08T15:44:22.208Z,101220.62
2017-11-08T15:46:59.119Z,101220.63
2017-11-08T15:49:35.862Z,101216.37
2017-11-08T15:52:12.497Z,101209.95
2017-11-08T15:54:50.105Z,101211.66
2017-11-08T15:57:26.905Z,101216.34
2017-11-08T16:00:06.035Z,101219.74
2017-11-08T16:02:44.429Z,101211.64
2017-11-08T16:05:22.353Z,101216.78
2017-11-08T16:07:58.975Z,101209.95
2017-11-08T16:10:37.540Z,101206.98
2017-11-08T16:13:14.832Z,101207.39
2017-11-08T16:15:52.235Z,101209.08
2017-11-08T16:18:29.119Z,101209.95
2017-11-08T16:21:06.129Z,101205.27
2017-11-08T16:23:43.261Z,101205.66
2017-11-08T16:26:21.855Z,101209.93
2017-11-08T16:28:58.527Z,101210.36
2017-11-08T16:31:38.544Z,101206.52
2017-11-08T16:34:15.833Z,101207.81
2017-11-08T16:36:53.603Z,101206.55
2017-11-08T16:39:31.949Z,101205.27
2017-11-08T16:45:10.332Z,101192.50
2017-11-08T16:47:47.291Z,101190.81
2017-11-08T16:50:24.249Z,101189.54
2017-11-08T16:53:01.428Z,101185.72
2017-11-08T16:55:42.761Z,101171.69
2017-11-08T16:58:19.892Z,101165.75
2017-11-08T17:00:58.290Z,101167.88
2017-11-08T17:03:35.345Z,101167.06
2017-11-08T17:06:13.089Z,101158.55
2017-11-08T17:08:50.032Z,101163.22
2017-11-08T17:11:26.895Z,101167.06
2017-11-08T17:14:03.978Z,101162.36
2017-11-08T17:16:41.128Z,101154.28
2017-11-08T17:19:18.383Z,101152.59
2017-11-08T17:21:58.719Z,101150.02
2017-11-08T17:24:35.519Z,101146.63
2017-11-08T17:27:13.291Z,101144.06
2017-11-08T17:29:50.764Z,101149.17
2017-11-08T17:32:28.201Z,101151.74
2017-11-08T17:35:05.349Z,101161.52
2017-11-08T17:37:42.115Z,101155.13
2017-11-08T17:40:18.652Z,101153.84
2017-11-08T17:42:55.496Z,101160.63
2017-11-08T17:45:24.422Z,101168.69
2017-11-08T17:48:03.595Z,101171.64
2017-11-08T17:50:32.489Z,101172.94
2017-11-08T17:53:09.780Z,101173.36
2017-11-08T17:55:47.211Z,101177.20
2017-11-08T17:58:24.156Z,101185.30
2017-11-08T18:01:00.946Z,101190.41
2017-11-08T18:03:39.637Z,101183.58
2017-11-08T18:06:16.168Z,101181.04
2017-11-08T18:08:54.654Z,101179.74
2017-11-08T18:11:32.068Z,101186.55
2017-11-08T18:14:10.692Z,101187.44
2017-11-08T18:16:47.869Z,101186.16
2017-11-08T18:19:27.472Z,101196.37
2017-11-08T18:22:04.769Z,101201.89
2017-11-08T18:24:46.256Z,101200.19
2017-11-08T18:27:22.848Z,101199.36
2017-11-08T18:30:03.414Z,101192.10
2017-11-08T18:32:40.599Z,101194.23
2017-11-08T18:35:21.749Z,101189.97
2017-11-08T18:37:51.690Z,101185.70
2017-11-08T18:40:33.060Z,101188.67
2017-11-08T18:46:14.087Z,101191.64
2017-11-08T18:48:50.909Z,101189.93
2017-11-08T18:51:27.838Z,101188.61
2017-11-08T18:54:05.154Z,101189.46
2017-11-08T18:56:43.509Z,101183.95
2017-11-08T18:59:20.989Z,101178.83
2017-11-08T19:01:58.283Z,101172.87
2017-11-08T19:04:35.443Z,101174.55
2017-11-08T19:07:13.448Z,101169.87
2017-11-08T19:09:50.515Z,101177.11
2017-11-08T19:12:28.385Z,101176.25
2017-11-08T19:15:05.925Z,101176.67
2017-11-08T19:17:44.139Z,101172.84
2017-11-08T19:20:21.384Z,101170.32
2017-11-08T19:22:58.614Z,101167.34
2017-11-08T19:25:27.628Z,101171.17
2017-11-08T19:28:06.098Z,101163.94
2017-11-08T19:30:43.190Z,101167.74
2017-11-08T19:33:21.285Z,101179.69
2017-11-08T19:35:58.193Z,101171.17
2017-11-08T19:38:35.198Z,101168.61
2017-11-08T19:41:12.096Z,101154.55
2017-11-08T19:43:49.963Z,101157.14
2017-11-08T19:46:26.669Z,101160.94
2017-11-08T19:49:04.949Z,101154.16
2017-11-08T19:51:42.237Z,101148.59
2017-11-08T19:54:21.601Z,101155.41
2017-11-08T19:56:58.522Z,101165.60
2017-11-08T19:59:37.928Z,101160.06
2017-11-08T20:02:14.866Z,101155.81
2017-11-08T20:04:54.711Z,101148.58
2017-11-08T20:07:32.101Z,101143.94
2017-11-08T20:10:09.832Z,101134.55
2017-11-08T20:12:38.766Z,101132.84
2017-11-08T20:15:07.716Z,101117.52
2017-11-08T20:17:44.699Z,101125.59
2017-11-08T20:20:21.521Z,101115.81
2017-11-08T20:23:00.849Z,101106.92
2017-11-08T20:25:33.621Z,101099.73
2017-11-08T20:28:11.128Z,101112.91
2017-11-08T20:49:34.846Z,101131.17
2017-11-08T20:52:12.267Z,101126.06
2017-11-08T20:54:49.391Z,101124.80
2017-11-08T20:57:26.191Z,101132.00
2017-11-08T20:59:58.081Z,101128.64
2017-11-08T21:02:35.230Z,101129.47
2017-11-08T21:05:12.831Z,101119.23
2017-11-08T21:07:49.916Z,101114.16
2017-11-08T21:10:28.957Z,101117.16
2017-11-08T21:13:05.863Z,101111.61
2017-11-08T21:15:51.883Z,101106.08
2017-11-08T21:18:22.938Z,101100.12
2017-11-08T21:20:59.356Z,101094.17
2017-11-08T21:23:36.355Z,101082.27
2017-11-08T21:26:14.438Z,101083.55
2017-11-08T21:28:51.493Z,101084.81
2017-11-08T21:31:35.090Z,101089.51
2017-11-08T21:34:12.082Z,101095.44
2017-11-08T21:36:48.998Z,101096.68
2017-11-08T21:39:27.679Z,101100.52
2017-11-08T21:42:10.168Z,101094.52
2017-11-08T21:44:47.391Z,101096.66
2017-11-08T21:47:27.804Z,101093.65
2017-11-08T21:49:56.706Z,101084.31
2017-11-08T21:58:38.668Z,101060.89
2017-11-08T22:01:21.746Z,101051.14
2017-11-08T22:04:04.791Z,101028.19
2017-11-08T22:06:43.579Z,101011.62
2017-11-08T22:09:27.365Z,101019.70
2017-11-08T22:12:04.604Z,100997.20
2017-11-08T22:14:43.493Z,100990.37
2017-11-08T22:17:24.951Z,100979.80
2017-11-08T22:20:01.695Z,100955.95
2017-11-08T22:22:38.444Z,100945.33
2017-11-08T22:25:16.362Z,100926.08
2017-11-08T22:27:53.354Z,100961.45
2017-11-08T22:30:23.245Z,100992.03
2017-11-08T22:33:13.023Z,101000.98
2017-11-08T22:35:50.607Z,100996.70
2017-11-08T22:38:28.247Z,101004.30
2017-11-08T22:41:08.113Z,100994.05
2017-11-08T22:43:49.376Z,100985.55
2017-11-08T22:46:29.412Z,100994.48
2017-11-08T22:49:05.956Z,101008.95
2017-11-08T22:51:44.660Z,101037.04
2017-11-08T22:54:21.275Z,101065.97
2017-11-08T22:56:58.464Z,101084.30
2017-11-08T22:59:35.077Z,101100.02
2017-11-08T23:02:12.640Z,101105.52
2017-11-08T23:04:49.541Z,101115.80
2017-11-08T23:07:30.436Z,101119.62
2017-11-08T23:10:07.840Z,101125.97
2017-11-08T23:12:44.654Z,101118.77
2017-11-08T23:15:21.598Z,101121.73
2017-11-08T23:18:02.032Z,101124.25
2017-11-08T23:20:40.702Z,101124.64
2017-11-08T23:23:17.883Z,101111.98
2017-11-08T23:25:55.852Z,101108.52
2017-11-08T23:28:37.370Z,101104.24
2017-11-08T23:31:14.749Z,101107.22
2017-11-08T23:33:54.097Z,101115.72
2017-11-08T23:36:30.959Z,101122.90
2017-11-08T23:39:10.786Z,101120.73
2017-11-08T23:41:47.367Z,101121.16
2017-11-08T23:44:28.110Z,101133.55
2017-11-08T23:46:58.876Z,101136.11
2017-11-08T23:49:42.457Z,101148.03
2017-11-08T23:52:19.413Z,101159.15
2017-11-08T23:54:56.554Z,101159.11
2017-11-08T23:57:36.030Z,101157.81
